Portada
METAR-TAF:

METAR-TAF

Aeropuertos :

Aeropuerto de Huesca-Pirineos

Huesca, España

latitud: 42-04-32N, longitud: 0-18-58W, altitud: 539 m

Observación

El informe se hizo hace 37 minutos, a las 15:00 UTC
Viento 3 kt del oeste-suroeste, variando entre sur-sureste y oeste
Temperatura 21°C
Humedad 49%
Presión 1014 hPa
Visibilidad 10 km o más
Escasas nubes a una altura de 3000 ft

METAR: LEHC 171500Z 25003KT 160V280 9999 FEW030 21/10 Q1014

Hora: 17:37 (15:37 UTC)

Pronóstico

El informe se hizo hace 7 horas y 37 minutos, a las 08:00 UTC
Pronóstico válido del 17 a las 09 UTC al 18 a las 09 UTC
Viento 4 kt con dirección variable
Visibilidad 10 km o más
Escasas nubes a una altura de 3000 ft

TAF: LEHC 170800Z 1709/1809 VRB04KT 9999 FEW030 TX19/1713Z TN12/1806Z

Observaciones y pronósticos meteorológicos de más de 4000 aeropuertos (mensajes METAR y TAF).

Los puntos amarillos y rojos representan las estaciones disponibles.

Ponga el ratón en el punto deseado para ver el nombre de la estación.

Haga clic para ver las observaciones y los pronósticos meteorológicos.

Para cambiar el mapa : haga clic en los botones verdes con una cruz de color negro para hacer un zoom, en el botón verde con un guión para alejar o en las flechas verdes para mapas adyacentes.


METAR-TAF: